Terminal Aerodrome Forecast
Issued by NWS

Home | Current Version | Previous Version | Text Only | Print | Product List | Glossary On
Versions: 1 2 3 4 5 6 7 8 9 10 11 12 13 14 15 16 17 18 19 20 21
198
FTUS43 KILX 290520
TAFDEC
TAF
KDEC 290520Z 2906/3006 23006KT P6SM SCT100 BKN250
     FM291700 27010KT P6SM SCT200
     FM292100 27012G18KT P6SM VCTS SCT045CB
     FM300000 29006KT P6SM SCT150=

USA.gov is the U.S. government's official web portal to all federal, state and local government web resources and services.